Terminal Aerodrome Forecast
Issued by NWS

Home | Current Version | Previous Version | Text Only | Print | Product List | Glossary On
Versions: 1 2 3 4 5 6 7 8 9 10 11 12
000
FTUS45 KBOI 211125
TAFMYL
TAF
KMYL 211125Z 2112/2212 VRB03KT P6SM BKN200
     FM212100 18010KT P6SM OVC150
     FM220200 VRB05KT P6SM BKN120 OVC150
     FM221000 VRB05KT P6SM BKN050 OVC080=

USA.gov is the U.S. government's official web portal to all federal, state and local government web resources and services.